Time;durP1;ratioP1;P1;durP2;ratioP2;P2;SDS_P1;SDS_P2;PMS_P1;PMS_P2;Temp;Humidity;BMP_temperature;BMP_pressure;BME280_temperature;BME280_humidity;BME280_pressure;Samples;Min_cycle;Max_cycle;Signal;HPM_P1;HPM_P2
2022/07/28 00:01:07;;;;;;;3.88;1.50;;;;;;;14.12;61.40;101203.59;5001092;28;20103;-58
2022/07/28 00:03:34;;;;;;;10.35;2.53;;;;;;;14.10;61.19;101206.38;5039568;28;20048;-56
2022/07/28 00:06:01;;;;;;;6.50;2.10;;;;;;;14.09;61.64;101207.28;5036495;28;20431;-54
2022/07/28 00:08:28;;;;;;;4.55;2.00;;;;;;;14.06;61.62;101204.84;5018520;28;20049;-58
2022/07/28 00:10:55;;;;;;;6.78;2.03;;;;;;;14.04;61.79;101206.75;5037318;28;20064;-56
2022/07/28 00:13:22;;;;;;;5.97;1.80;;;;;;;14.02;62.12;101210.44;5038942;28;20065;-56
2022/07/28 00:15:49;;;;;;;6.30;1.90;;;;;;;13.99;62.45;101218.56;5035012;28;20053;-54
2022/07/28 00:18:17;;;;;;;7.97;1.95;;;;;;;13.95;62.68;101215.28;5039698;28;20082;-54
2022/07/28 00:20:44;;;;;;;4.93;1.50;;;;;;;13.91;62.63;101214.63;5029412;28;20129;-54
2022/07/28 00:23:11;;;;;;;5.60;1.90;;;;;;;13.89;63.41;101220.97;5041393;28;20054;-53
2022/07/28 00:25:38;;;;;;;6.05;2.13;;;;;;;13.84;63.37;101221.25;5032798;28;20049;-54
2022/07/28 00:28:05;;;;;;;9.73;1.73;;;;;;;13.81;63.06;101213.50;5042439;28;20060;-52
2022/07/28 00:30:32;;;;;;;6.80;1.75;;;;;;;13.79;63.17;101211.91;5034676;28;20041;-52
2022/07/28 00:32:59;;;;;;;10.50;2.08;;;;;;;13.78;63.55;101215.47;5038597;28;20068;-53
2022/07/28 00:35:26;;;;;;;6.22;2.08;;;;;;;13.75;62.94;101216.53;5034980;28;20057;-54
2022/07/28 00:37:58;;;;;;;4.22;1.40;;;;;;;13.74;63.27;101214.00;5035034;28;20053;-58
2022/07/28 00:41:09;;;;;;;5.60;2.08;;;;;;;13.74;62.86;101214.00;5039851;28;20614;-55
2022/07/28 00:43:13;;;;;;;6.47;1.70;;;;;;;13.72;63.25;101221.16;5032854;28;20050;-54
2022/07/28 00:45:41;;;;;;;4.18;1.58;;;;;;;13.69;64.00;101224.88;5040179;28;20053;-56
2022/07/28 00:48:08;;;;;;;4.88;1.77;;;;;;;13.64;63.72;101219.00;5039069;28;20065;-53
2022/07/28 00:50:38;;;;;;;8.18;1.58;;;;;;;13.62;63.96;101223.53;5033118;28;20077;-54
2022/07/28 00:53:06;;;;;;;6.38;1.75;;;;;;;13.60;63.86;101221.00;5038392;28;20068;-57
2022/07/28 00:55:35;;;;;;;5.20;1.80;;;;;;;13.57;64.58;101215.91;5035748;28;20045;-55
2022/07/28 00:58:22;;;;;;;10.68;2.08;;;;;;;13.55;64.24;101223.06;5035037;28;20059;-53
2022/07/28 01:00:49;;;;;;;8.25;2.33;;;;;;;13.54;64.07;101223.16;5025045;28;20046;-55
2022/07/28 01:03:17;;;;;;;7.20;1.88;;;;;;;13.51;63.64;101213.63;5034721;28;20054;-51
2022/07/28 01:05:44;;;;;;;3.97;1.40;;;;;;;13.49;64.27;101214.66;5004915;28;20066;-54
2022/07/28 01:08:21;;;;;;;5.32;2.10;;;;;;;13.47;64.45;101216.56;5040644;28;20052;-53
2022/07/28 01:11:25;;;;;;;5.65;1.50;;;;;;;13.45;64.48;101216.63;5025212;28;20045;-53
2022/07/28 01:13:58;;;;;;;2.97;1.10;;;;;;;13.43;64.36;101213.25;5038042;28;20057;-52
2022/07/28 01:16:26;;;;;;;8.57;2.20;;;;;;;13.41;64.86;101217.78;5016523;28;20053;-52
2022/07/28 01:18:59;;;;;;;6.13;1.45;;;;;;;13.38;64.60;101216.19;5019390;28;20054;-54
2022/07/28 01:21:32;;;;;;;7.50;1.88;;;;;;;13.36;65.06;101220.69;5035473;28;20049;-55
2022/07/28 01:24:11;;;;;;;6.85;1.60;;;;;;;13.30;65.55;101218.44;5035461;28;20057;-55
2022/07/28 01:27:00;;;;;;;5.75;1.42;;;;;;;13.25;64.83;101214.38;5018757;28;20053;-54
2022/07/28 01:29:41;;;;;;;5.22;1.58;;;;;;;13.23;64.82;101211.81;5017492;28;20049;-56
2022/07/28 01:32:15;;;;;;;6.10;1.67;;;;;;;13.21;65.42;101215.47;5014630;28;20068;-56
2022/07/28 01:35:11;;;;;;;5.83;1.53;;;;;;;13.18;65.44;101208.56;5039456;28;20053;-59
2022/07/28 01:37:41;;;;;;;4.65;1.80;;;;;;;13.16;65.22;101216.59;5012039;28;20068;-56
2022/07/28 01:40:09;;;;;;;9.25;1.90;;;;;;;13.15;65.87;101219.34;5030192;28;20670;-55
2022/07/28 01:42:40;;;;;;;5.32;1.45;;;;;;;13.12;65.49;101222.16;5016974;28;20057;-54
2022/07/28 01:45:08;;;;;;;6.20;1.65;;;;;;;13.11;65.87;101221.31;5010315;28;20054;-57
2022/07/28 01:47:36;;;;;;;4.85;1.45;;;;;;;13.09;65.74;101215.25;5022613;28;20501;-57
2022/07/28 01:50:07;;;;;;;9.15;2.08;;;;;;;13.07;66.50;101227.72;5019829;28;20140;-56
2022/07/28 01:52:35;;;;;;;4.60;1.67;;;;;;;13.05;66.39;101216.38;5038352;28;20055;-52
2022/07/28 01:55:04;;;;;;;4.78;2.00;;;;;;;13.01;66.81;101225.44;5011810;28;20068;-53
2022/07/28 01:57:32;;;;;;;3.47;1.40;;;;;;;12.95;66.94;101220.53;5022339;28;20055;-56
2022/07/28 02:00:00;;;;;;;8.30;1.95;;;;;;;12.88;67.07;101219.19;5035140;28;20049;-52
2022/07/28 02:02:28;;;;;;;8.60;1.80;;;;;;;12.82;67.33;101212.47;5016539;28;20052;-54
2022/07/28 02:04:56;;;;;;;5.88;1.60;;;;;;;12.81;67.70;101212.56;5017500;28;20084;-51
2022/07/28 02:07:25;;;;;;;9.45;2.67;;;;;;;12.77;67.74;101209.25;5018279;28;20064;-55
2022/07/28 02:09:53;;;;;;;3.33;1.52;;;;;;;12.78;67.42;101212.72;5010447;28;20057;-53
2022/07/28 02:12:21;;;;;;;8.90;2.00;;;;;;;12.77;68.10;101211.03;5019377;28;20063;-52
2022/07/28 02:14:49;;;;;;;5.15;2.17;;;;;;;12.76;68.54;101211.97;5013963;28;20049;-58
2022/07/28 02:17:20;;;;;;;7.13;2.17;;;;;;;12.74;68.71;101214.69;5017364;28;20521;-53
2022/07/28 02:19:47;;;;;;;4.35;1.75;;;;;;;12.73;68.55;101214.78;5026384;28;20050;-56
2022/07/28 02:22:15;;;;;;;4.03;1.77;;;;;;;12.71;69.10;101211.41;5035260;28;20057;-54
2022/07/28 02:24:43;;;;;;;7.20;2.03;;;;;;;12.69;68.94;101208.84;5034474;28;20045;-57
2022/07/28 02:27:26;;;;;;;7.70;2.05;;;;;;;12.67;69.44;101219.50;5012835;28;20081;-52
2022/07/28 02:30:19;;;;;;;6.97;2.15;;;;;;;12.65;70.09;101205.53;5016579;28;20056;-55
2022/07/28 02:32:55;;;;;;;10.90;1.75;;;;;;;12.64;70.20;101216.19;5025882;28;20049;-53
2022/07/28 02:35:39;;;;;;;6.03;1.60;;;;;;;12.60;70.27;101219.94;5036278;28;20072;-53
2022/07/28 02:38:30;;;;;;;6.90;1.73;;;;;;;12.56;70.51;101224.56;5015236;28;20045;-57
2022/07/28 02:41:01;;;;;;;4.18;1.67;;;;;;;12.52;71.99;101212.47;5035212;28;20545;-56
2022/07/28 02:43:30;;;;;;;6.03;1.80;;;;;;;12.50;71.86;101229.34;5041716;28;20053;-53
2022/07/28 02:46:19;;;;;;;8.65;1.83;;;;;;;12.45;72.08;101224.31;5032870;28;20056;-52
2022/07/28 02:48:49;;;;;;;3.78;2.33;;;;;;;12.42;72.52;101227.13;5034254;28;20569;-52
2022/07/28 02:51:17;;;;;;;6.35;1.85;;;;;;;12.39;72.36;101225.53;5009753;28;20059;-58
2022/07/28 02:53:45;;;;;;;5.40;1.88;;;;;;;12.36;72.42;101230.13;5013262;28;20413;-55
2022/07/28 02:56:14;;;;;;;8.15;2.00;;;;;;;12.33;72.45;101236.41;5020321;28;20131;-57
2022/07/28 02:58:41;;;;;;;4.18;2.13;;;;;;;12.32;72.51;101233.88;5032043;28;20045;-57
2022/07/28 03:01:10;;;;;;;7.63;2.60;;;;;;;12.31;72.31;101238.31;5030846;28;20525;-57
2022/07/28 03:03:37;;;;;;;5.93;1.80;;;;;;;12.30;71.94;101233.13;5014987;28;20505;-55
2022/07/28 03:06:10;;;;;;;5.88;1.75;;;;;;;12.30;71.90;101233.13;5013767;28;20060;-57
2022/07/28 03:08:37;;;;;;;7.65;2.08;;;;;;;12.29;72.04;101234.91;5026249;28;20054;-59
2022/07/28 03:11:09;;;;;;;3.88;1.80;;;;;;;12.28;72.05;101235.81;5021186;28;20053;-54
2022/07/28 03:13:36;;;;;;;7.60;2.28;;;;;;;12.27;72.65;101244.69;5032740;28;20096;-56
2022/07/28 03:16:04;;;;;;;8.43;2.10;;;;;;;12.26;73.59;101247.44;5031313;28;20092;-54
2022/07/28 03:18:32;;;;;;;7.88;1.95;;;;;;;12.25;74.05;101248.34;5027577;28;20053;-57
2022/07/28 03:20:59;;;;;;;7.47;2.40;;;;;;;12.23;74.42;101247.59;5033064;28;20053;-56
2022/07/28 03:23:33;;;;;;;6.65;1.80;;;;;;;12.20;75.10;101253.03;5035599;28;20053;-56
2022/07/28 03:26:04;;;;;;;6.60;2.10;;;;;;;12.16;74.98;101258.50;5008945;28;20165;-55
2022/07/28 03:28:32;;;;;;;7.97;2.08;;;;;;;12.17;75.00;101256.72;5011875;28;20053;-55
2022/07/28 03:31:04;;;;;;;6.35;2.40;;;;;;;12.16;75.57;101260.28;5011938;28;20061;-52
2022/07/28 03:33:32;;;;;;;8.63;2.30;;;;;;;12.15;76.02;101267.31;5026827;28;20107;-56
2022/07/28 03:36:02;;;;;;;9.43;2.00;;;;;;;12.15;75.72;101262.06;5037399;28;20080;-55
2022/07/28 03:38:33;;;;;;;4.10;1.70;;;;;;;12.18;75.97;101268.97;5011663;28;20041;-53
2022/07/28 03:41:00;;;;;;;6.53;2.00;;;;;;;12.19;75.63;101269.81;5020091;28;20083;-58
2022/07/28 03:43:28;;;;;;;4.95;1.73;;;;;;;12.20;75.68;101263.59;5017553;28;20073;-55
2022/07/28 03:45:55;;;;;;;6.20;1.80;;;;;;;12.20;75.09;101259.16;5013633;28;20080;-54
2022/07/28 03:48:28;;;;;;;4.88;1.73;;;;;;;12.20;75.08;101258.31;5037380;28;20072;-54
2022/07/28 03:50:55;;;;;;;6.63;1.85;;;;;;;12.22;75.18;101259.09;5031824;28;20045;-55
2022/07/28 03:53:24;;;;;;;7.57;2.33;;;;;;;12.21;75.49;101255.59;5012277;28;20680;-57
2022/07/28 03:55:52;;;;;;;7.28;2.20;;;;;;;12.24;75.37;101254.56;5013325;28;20068;-54
2022/07/28 03:58:21;;;;;;;9.15;2.50;;;;;;;12.27;75.17;101265.81;5031633;28;20068;-57
2022/07/28 04:00:52;;;;;;;8.25;1.75;;;;;;;12.30;75.70;101270.09;5031897;28;20053;-57
2022/07/28 04:03:20;;;;;;;5.55;1.75;;;;;;;12.34;75.33;101268.97;5031915;28;20069;-57
2022/07/28 04:06:07;;;;;;;9.73;2.03;;;;;;;12.36;75.55;101275.84;5035666;28;20049;-52
2022/07/28 04:08:34;;;;;;;8.93;2.05;;;;;;;12.39;75.49;101275.69;5031823;28;20046;-55
2022/07/28 04:11:01;;;;;;;15.00;3.03;;;;;;;12.43;75.67;101273.75;5032418;28;20527;-55
2022/07/28 04:13:30;;;;;;;6.70;1.70;;;;;;;12.47;75.52;101275.25;5040319;28;20057;-59
2022/07/28 04:15:58;;;;;;;8.20;2.30;;;;;;;12.50;75.21;101275.06;5038123;28;20064;-58
2022/07/28 04:18:25;;;;;;;9.07;2.10;;;;;;;12.56;75.28;101281.78;5031228;28;20057;-57
2022/07/28 04:20:54;;;;;;;4.40;2.13;;;;;;;12.63;74.99;101281.38;5039391;28;20064;-57
2022/07/28 04:23:22;;;;;;;4.60;2.08;;;;;;;12.71;74.64;101282.72;5036247;28;20057;-53
2022/07/28 04:25:50;;;;;;;3.63;1.90;;;;;;;12.77;74.77;101283.22;5038354;28;20049;-59
2022/07/28 04:28:17;;;;;;;11.82;2.63;;;;;;;12.83;74.29;101285.53;5033411;28;20072;-57
2022/07/28 04:30:44;;;;;;;6.63;2.20;;;;;;;12.88;74.30;101285.25;5034691;28;20069;-58
2022/07/28 04:33:12;;;;;;;7.55;2.05;;;;;;;12.94;74.12;101282.25;5032654;28;20059;-55
2022/07/28 04:35:39;;;;;;;7.40;2.22;;;;;;;13.00;73.90;101287.16;5024053;28;20060;-56
2022/07/28 04:38:07;;;;;;;7.28;1.88;;;;;;;13.06;74.10;101285.97;5036239;28;20052;-55
2022/07/28 04:40:34;;;;;;;9.45;2.20;;;;;;;13.12;73.96;101286.44;5039639;28;20064;-58
2022/07/28 04:43:02;;;;;;;6.53;2.15;;;;;;;13.19;73.29;101286.94;5039748;28;20063;-56
2022/07/28 04:45:29;;;;;;;5.60;2.47;;;;;;;13.26;72.67;101287.47;5031724;28;20049;-58
2022/07/28 04:47:57;;;;;;;8.00;2.83;;;;;;;13.31;72.57;101288.03;5041751;28;20053;-57
2022/07/28 04:50:24;;;;;;;9.07;2.00;;;;;;;13.39;72.56;101288.44;5033468;28;20050;-57
2022/07/28 04:52:51;;;;;;;7.30;2.20;;;;;;;13.48;72.10;101287.88;5040047;28;20489;-57
2022/07/28 04:55:18;;;;;;;7.40;1.73;;;;;;;13.58;71.91;101286.38;5035603;28;20061;-53
2022/07/28 04:57:45;;;;;;;7.70;2.83;;;;;;;13.69;71.60;101291.03;5027912;28;20080;-55
2022/07/28 05:00:13;;;;;;;5.10;1.80;;;;;;;13.80;71.33;101291.19;5034675;28;20089;-56
2022/07/28 05:02:43;;;;;;;7.18;2.30;;;;;;;13.92;70.79;101290.44;5035636;28;20045;-58
2022/07/28 05:05:11;;;;;;;4.75;2.05;;;;;;;14.05;70.57;101289.66;5028610;28;20053;-57
2022/07/28 05:07:38;;;;;;;9.38;2.67;;;;;;;14.18;70.56;101296.75;5035564;28;20053;-58
2022/07/28 05:10:07;;;;;;;6.63;2.17;;;;;;;14.34;70.84;101293.13;5035544;28;20064;-58
2022/07/28 05:12:34;;;;;;;8.95;1.98;;;;;;;14.46;70.27;101297.63;5026495;28;20061;-52
2022/07/28 05:15:06;;;;;;;6.80;2.10;;;;;;;14.57;69.74;101294.31;5036343;28;20057;-57
2022/07/28 05:17:34;;;;;;;7.38;2.67;;;;;;;14.66;69.32;101283.13;5032995;28;20049;-54
2022/07/28 05:20:02;;;;;;;8.73;3.08;;;;;;;14.75;69.13;101286.97;5038534;28;20140;-58
2022/07/28 05:22:52;;;;;;;9.52;2.55;;;;;;;14.86;68.75;101287.09;5036899;28;20050;-57
2022/07/28 05:25:21;;;;;;;10.98;2.25;;;;;;;14.91;68.44;101292.97;5029153;28;20057;-53
2022/07/28 05:27:49;;;;;;;8.07;2.00;;;;;;;14.97;68.13;101295.19;5038170;28;20053;-55
2022/07/28 05:30:17;;;;;;;7.95;2.55;;;;;;;15.03;67.59;101286.81;5036812;28;20056;-55
2022/07/28 05:32:45;;;;;;;8.93;2.38;;;;;;;15.07;67.58;101288.31;5038473;28;20104;-57
2022/07/28 05:35:12;;;;;;;5.32;2.10;;;;;;;15.20;67.16;101286.53;5033184;28;20056;-58
2022/07/28 05:37:39;;;;;;;7.35;2.08;;;;;;;15.35;66.99;101300.56;5036410;28;20050;-54
2022/07/28 05:40:13;;;;;;;7.25;2.08;;;;;;;15.45;66.47;101298.16;5037841;28;20064;-56
2022/07/28 05:42:43;;;;;;;5.75;1.88;;;;;;;15.54;66.29;101305.47;5029594;28;20045;-53
2022/07/28 05:45:11;;;;;;;8.13;2.83;;;;;;;15.63;65.93;101310.16;5032421;28;20065;-55
2022/07/28 05:47:45;;;;;;;5.97;2.30;;;;;;;15.77;65.71;101303.06;5038606;28;20041;-54
2022/07/28 05:50:13;;;;;;;10.40;2.75;;;;;;;15.84;65.48;101313.13;5036891;28;20080;-55
2022/07/28 05:52:40;;;;;;;8.18;2.08;;;;;;;15.95;65.09;101313.22;5020512;28;20038;-59
2022/07/28 05:55:08;;;;;;;8.65;2.30;;;;;;;16.05;64.55;101317.91;5032279;28;20055;-55
2022/07/28 05:57:36;;;;;;;9.90;2.40;;;;;;;16.15;64.31;101314.47;5014496;28;20405;-57
2022/07/28 06:00:08;;;;;;;9.07;2.38;;;;;;;16.25;63.90;101313.81;5037339;28;20057;-56
2022/07/28 06:02:36;;;;;;;7.72;2.00;;;;;;;16.28;63.88;101321.56;5029015;28;20378;-56
2022/07/28 06:05:05;;;;;;;11.32;2.15;;;;;;;16.38;63.64;101319.94;5033517;28;20057;-56
2022/07/28 06:07:32;;;;;;;10.45;2.10;;;;;;;16.53;63.30;101318.84;5029642;28;20045;-55
2022/07/28 06:10:11;;;;;;;5.95;2.08;;;;;;;16.70;62.92;101323.75;5018947;28;20049;-55
2022/07/28 06:12:43;;;;;;;7.97;2.25;;;;;;;16.82;61.87;101319.38;5036777;28;20041;-56
2022/07/28 06:15:28;;;;;;;5.07;1.50;;;;;;;16.98;61.80;101320.91;5033685;28;20045;-54
2022/07/28 06:17:55;;;;;;;8.07;2.17;;;;;;;17.10;61.16;101315.50;5037703;28;20404;-58
2022/07/28 06:20:24;;;;;;;14.98;2.22;;;;;;;17.10;59.78;101322.63;5032916;28;20464;-58
2022/07/28 06:22:53;;;;;;;6.95;2.10;;;;;;;16.96;60.08;101316.53;5035637;28;20064;-58
2022/07/28 06:25:25;;;;;;;8.10;1.88;;;;;;;17.21;60.06;101328.84;5031386;28;20061;-57
2022/07/28 06:27:54;;;;;;;12.77;2.00;;;;;;;17.35;59.04;101327.81;5026729;28;20175;-56
2022/07/28 06:30:22;;;;;;;3.38;1.38;;;;;;;17.54;59.52;101321.91;5032353;28;20065;-58
2022/07/28 06:32:49;;;;;;;6.95;1.52;;;;;;;17.71;58.94;101332.09;5034847;28;20051;-56
2022/07/28 06:35:16;;;;;;;6.63;1.73;;;;;;;17.83;57.93;101329.47;5031756;28;20513;-55
2022/07/28 06:37:44;;;;;;;6.13;1.50;;;;;;;17.96;57.67;101325.72;5021403;28;20056;-57
2022/07/28 06:40:13;;;;;;;6.97;1.83;;;;;;;18.08;57.17;101328.41;5034927;28;20060;-55
2022/07/28 06:42:41;;;;;;;4.85;1.70;;;;;;;18.06;56.49;101325.03;5028980;28;20049;-55
2022/07/28 06:45:09;;;;;;;5.43;1.42;;;;;;;18.19;56.72;101321.25;5037234;28;20063;-55
2022/07/28 06:47:50;;;;;;;7.57;1.77;;;;;;;18.25;56.45;101322.56;5027368;28;20065;-55
2022/07/28 06:50:18;;;;;;;8.88;2.05;;;;;;;18.31;55.02;101331.91;5035758;28;20540;-55
2022/07/28 06:52:56;;;;;;;8.75;2.53;;;;;;;18.27;55.29;101325.94;5029436;28;20054;-55
2022/07/28 06:55:25;;;;;;;7.82;1.80;;;;;;;18.45;55.39;101320.97;5029292;28;20049;-56
2022/07/28 06:58:04;;;;;;;6.10;2.10;;;;;;;18.59;54.64;101323.34;5036719;28;20060;-57
2022/07/28 07:00:31;;;;;;;6.40;1.77;;;;;;;18.57;54.49;101322.63;5024273;28;20159;-55
2022/07/28 07:02:59;;;;;;;7.88;1.65;;;;;;;18.67;55.02;101322.72;5038469;28;20057;-57
2022/07/28 07:05:30;;;;;;;8.93;2.00;;;;;;;18.65;54.15;101327.34;5030563;28;20061;-58
2022/07/28 07:07:58;;;;;;;6.50;2.10;;;;;;;18.72;54.32;101324.06;5030517;28;20050;-57
2022/07/28 07:10:25;;;;;;;13.35;2.40;;;;;;;18.75;53.79;101319.47;5023361;28;20045;-58
2022/07/28 07:12:52;;;;;;;5.43;1.58;;;;;;;18.56;54.13;101320.09;5035789;28;20045;-59
2022/07/28 07:15:19;;;;;;;11.18;2.00;;;;;;;18.69;54.19;101316.34;5031226;28;20580;-58
2022/07/28 07:17:47;;;;;;;6.50;1.95;;;;;;;18.85;53.49;101315.06;5033789;28;20156;-53
2022/07/28 07:20:15;;;;;;;4.65;1.30;;;;;;;18.99;53.63;101314.75;5028981;28;20064;-54
2022/07/28 07:22:45;;;;;;;8.80;2.13;;;;;;;19.04;52.62;101315.22;5028108;28;20053;-56
2022/07/28 07:25:17;;;;;;;7.88;2.10;;;;;;;18.97;52.66;101314.06;5027620;28;20060;-56
2022/07/28 07:27:44;;;;;;;5.97;1.88;;;;;;;19.08;52.23;101315.81;5029290;28;20417;-54
2022/07/28 07:30:12;;;;;;;8.75;1.80;;;;;;;19.18;52.25;101311.38;5032605;28;20068;-58
2022/07/28 07:32:40;;;;;;;7.60;1.95;;;;;;;19.39;52.00;101312.25;5032533;28;20053;-58
2022/07/28 07:35:08;;;;;;;7.78;2.13;;;;;;;19.59;51.78;101312.38;5015108;28;20077;-55
2022/07/28 07:37:35;;;;;;;8.20;2.00;;;;;;;19.66;50.55;101318.91;5025734;28;20060;-58
2022/07/28 07:40:04;;;;;;;12.07;2.30;;;;;;;19.71;50.30;101319.34;5036960;28;20068;-57
2022/07/28 07:42:31;;;;;;;12.25;2.17;;;;;;;19.82;49.67;101316.63;5029116;28;20120;-58
2022/07/28 07:44:58;;;;;;;6.60;1.70;;;;;;;19.86;50.05;101317.19;5029096;28;20861;-56
2022/07/28 07:47:25;;;;;;;5.82;1.85;;;;;;;20.15;49.72;101323.50;5041517;28;20053;-55
2022/07/28 07:49:52;;;;;;;12.82;2.28;;;;;;;19.89;48.72;101312.41;5035974;28;20068;-58
2022/07/28 07:52:20;;;;;;;9.35;2.63;;;;;;;19.64;49.34;101313.72;5035101;28;20046;-58
2022/07/28 07:54:47;;;;;;;4.85;2.45;;;;;;;19.95;49.26;101319.06;5032722;28;20514;-56
2022/07/28 07:57:14;;;;;;;11.43;1.90;;;;;;;19.82;48.74;101321.13;5033861;28;20061;-55
2022/07/28 07:59:41;;;;;;;10.48;2.13;;;;;;;19.96;48.23;101313.56;5045763;28;20051;-55
2022/07/28 08:02:08;;;;;;;7.32;1.83;;;;;;;20.10;48.42;101320.38;5050132;28;20071;-56
2022/07/28 08:04:36;;;;;;;10.63;1.90;;;;;;;20.12;48.17;101321.06;5054388;28;20041;-54
2022/07/28 08:07:08;;;;;;;9.02;2.35;;;;;;;20.11;47.43;101316.72;5049461;28;20616;-58
2022/07/28 08:09:35;;;;;;;10.55;2.35;;;;;;;20.01;47.40;101318.50;5040363;28;20084;-56
2022/07/28 08:12:03;;;;;;;5.57;1.90;;;;;;;20.15;47.82;101317.28;5035372;28;20080;-56
2022/07/28 08:14:30;;;;;;;5.05;1.60;;;;;;;20.48;47.36;101316.16;5042115;28;20057;-57
2022/07/28 08:16:58;;;;;;;11.27;2.13;;;;;;;20.72;47.20;101321.97;5035701;28;20061;-56
2022/07/28 08:19:25;;;;;;;5.47;1.88;;;;;;;20.83;46.41;101317.47;5043719;28;20049;-57
2022/07/28 08:21:54;;;;;;;9.70;1.95;;;;;;;20.95;46.53;101316.34;5035923;28;20058;-58
2022/07/28 08:24:21;;;;;;;5.57;1.70;;;;;;;20.99;46.73;101312.41;5035519;28;20424;-56
2022/07/28 08:27:01;;;;;;;7.32;1.90;;;;;;;21.21;46.13;101317.47;5038790;28;20053;-57
2022/07/28 08:29:28;;;;;;;10.30;2.10;;;;;;;20.93;43.16;101312.94;5038557;28;20068;-56
2022/07/28 08:31:55;;;;;;;3.13;1.00;;;;;;;20.96;42.70;101318.88;5039113;28;20053;-55
2022/07/28 08:34:23;;;;;;;9.05;1.13;;;;;;;20.86;42.33;101314.53;5031775;28;20509;-57
2022/07/28 08:37:01;;;;;;;13.68;1.77;;;;;;;19.61;44.38;101313.13;5034330;28;20053;-55
2022/07/28 08:39:33;;;;;;;6.43;1.50;;;;;;;19.60;45.18;101322.97;5043752;22;20050;-59
2022/07/28 08:42:08;;;;;;;10.55;1.50;;;;;;;20.06;44.26;101326.97;5028216;28;20051;-60
2022/07/28 08:44:57;;;;;;;5.05;0.98;;;;;;;20.52;43.70;101330.09;5028778;28;20053;-59
2022/07/28 08:47:32;;;;;;;11.13;1.92;;;;;;;20.85;43.10;101332.41;5032534;28;20168;-60
2022/07/28 08:50:22;;;;;;;7.78;1.60;;;;;;;20.94;43.63;101336.09;5026318;28;20056;-60
2022/07/28 08:52:52;;;;;;;7.70;1.80;;;;;;;21.19;43.15;101329.28;5032011;28;20053;-60
2022/07/28 08:55:24;;;;;;;7.60;1.55;;;;;;;21.35;42.90;101320.72;5037722;28;20496;-58
2022/07/28 08:57:59;;;;;;;7.93;1.75;;;;;;;21.49;42.81;101329.16;5029099;28;20056;-59
2022/07/28 09:00:26;;;;;;;7.07;1.85;;;;;;;21.15;42.60;101328.72;5026184;28;20057;-60
2022/07/28 09:02:53;;;;;;;9.88;1.95;;;;;;;20.93;43.04;101326.34;5032709;28;20049;-58
2022/07/28 09:05:22;;;;;;;9.25;1.52;;;;;;;21.12;42.76;101333.50;5036858;28;20061;-58
2022/07/28 09:07:50;;;;;;;13.45;2.35;;;;;;;21.43;42.71;101326.19;5032639;28;20053;-58
2022/07/28 09:10:21;;;;;;;6.07;1.83;;;;;;;21.51;42.36;101329.00;5031322;28;20068;-58
2022/07/28 09:12:48;;;;;;;6.45;1.70;;;;;;;21.37;42.68;101324.09;5034496;28;20060;-58
2022/07/28 09:15:15;;;;;;;10.35;1.67;;;;;;;21.23;41.86;101320.84;5038700;28;20045;-59
2022/07/28 09:17:42;;;;;;;6.50;1.67;;;;;;;21.47;42.13;101327.59;5030436;28;20064;-59
2022/07/28 09:20:10;;;;;;;8.95;2.03;;;;;;;21.77;41.54;101325.69;5025119;28;20421;-61
2022/07/28 09:23:00;;;;;;;8.40;1.70;;;;;;;21.71;40.48;101336.00;5036000;28;20064;-59
2022/07/28 09:25:29;;;;;;;7.13;1.60;;;;;;;21.29;41.63;101329.28;5030203;28;20049;-60
2022/07/28 09:28:17;;;;;;;5.60;1.35;;;;;;;20.44;43.16;101326.25;5031139;28;20634;-59
2022/07/28 09:30:48;;;;;;;6.70;1.50;;;;;;;20.88;43.04;101326.75;5029627;28;20425;-59
2022/07/28 09:33:22;;;;;;;;;;;;;;;21.40;42.42;101321.97;5040827;28;20069;-59
2022/07/28 09:36:15;;;;;;;5.70;1.50;;;;;;;21.61;41.37;101324.44;5030753;28;19941;-60
2022/07/28 09:38:42;;;;;;;5.45;1.48;;;;;;;21.95;40.78;101326.63;5036779;28;20050;-60
2022/07/28 09:41:10;;;;;;;7.18;1.60;;;;;;;21.98;40.68;101331.69;5033924;28;20053;-56
2022/07/28 09:43:42;;;;;;;8.15;1.58;;;;;;;22.10;40.19;101324.28;5023791;28;20068;-59
2022/07/28 09:46:15;;;;;;;10.13;1.50;;;;;;;21.66;40.96;101321.34;5034951;28;20390;-59
2022/07/28 09:48:58;;;;;;;8.43;2.05;;;;;;;21.59;41.16;101321.09;5033082;28;20061;-58
2022/07/28 09:51:28;;;;;;;11.23;2.05;;;;;;;21.55;41.65;101324.19;5027648;28;20133;-59
2022/07/28 09:54:16;;;;;;;6.72;1.63;;;;;;;21.90;40.80;101327.06;5029930;28;20062;-60
2022/07/28 09:56:44;;;;;;;5.22;1.30;;;;;;;22.05;40.17;101315.84;5036866;28;20450;-61
2022/07/28 09:59:12;;;;;;;6.10;1.38;;;;;;;22.22;40.80;101312.41;5036096;28;20049;-59
2022/07/28 10:01:56;;;;;;;7.70;1.27;;;;;;;22.34;40.12;101315.75;5026840;28;20421;-58
2022/07/28 10:04:29;;;;;;;4.47;1.70;;;;;;;22.58;39.13;101315.16;5036272;28;20064;-60
2022/07/28 10:07:08;;;;;;;10.43;1.77;;;;;;;22.39;38.88;101308.09;5030693;28;20476;-58
2022/07/28 10:09:36;;;;;;;5.55;1.60;;;;;;;22.51;39.69;101312.22;5031503;28;20429;-59
2022/07/28 10:12:17;;;;;;;7.63;1.60;;;;;;;22.58;38.57;101317.84;5032945;28;20058;-59
2022/07/28 10:14:45;;;;;;;6.68;1.95;;;;;;;22.17;38.46;101310.19;5022590;28;20053;-56
2022/07/28 10:17:32;;;;;;;8.43;1.77;;;;;;;21.97;39.43;101305.84;5033596;28;20061;-60
2022/07/28 10:20:04;;;;;;;3.13;1.45;;;;;;;22.06;39.94;101306.81;5030322;28;20061;-60
2022/07/28 10:22:33;;;;;;;7.10;1.50;;;;;;;22.04;39.59;101306.97;5038381;28;20057;-60
2022/07/28 10:25:09;;;;;;;4.07;1.50;;;;;;;22.29;39.54;101312.63;5028723;28;20576;-56
2022/07/28 10:27:39;;;;;;;4.75;1.38;;;;;;;22.32;38.54;101312.34;5031477;28;20057;-57
2022/07/28 10:30:07;;;;;;;3.85;1.40;;;;;;;22.04;39.23;101306.97;5028979;28;20063;-59
2022/07/28 10:32:40;;;;;;;11.40;1.80;;;;;;;21.99;39.08;101314.59;5036864;28;20064;-56
2022/07/28 10:35:12;;;;;;;7.30;2.15;;;;;;;21.79;38.83;101304.94;5027019;28;20057;-57
2022/07/28 10:37:51;;;;;;;5.40;1.73;;;;;;;21.97;39.01;101309.41;5038748;28;20061;-60
2022/07/28 10:40:22;;;;;;;7.20;1.95;;;;;;;22.27;39.48;101298.53;5024365;28;20053;-60
2022/07/28 10:42:49;;;;;;;9.57;1.50;;;;;;;22.64;38.99;101293.06;5027800;28;20053;-60
2022/07/28 10:45:17;;;;;;;6.28;1.33;;;;;;;22.98;38.31;101283.34;5036363;28;20072;-60
2022/07/28 10:47:44;;;;;;;8.60;1.73;;;;;;;23.14;37.83;101295.22;5030798;28;20094;-59
2022/07/28 10:50:12;;;;;;;6.50;1.63;;;;;;;22.93;37.58;101298.25;5037481;28;20068;-55
2022/07/28 10:52:41;;;;;;;8.40;1.85;;;;;;;22.81;37.40;101292.22;5027882;28;20053;-60
2022/07/28 10:55:45;;;;;;;4.97;1.13;;;;;;;22.72;37.55;101288.63;5028996;28;20057;-60
2022/07/28 10:58:22;;;;;;;4.68;1.77;;;;;;;22.55;38.14;101302.03;5037114;28;20045;-56
2022/07/28 11:00:54;;;;;;;7.25;1.55;;;;;;;22.42;37.91;101303.25;5027809;28;20509;-57
2022/07/28 11:03:43;;;;;;;7.53;1.70;;;;;;;22.56;37.63;101296.53;5037864;28;20052;-60
2022/07/28 11:06:30;;;;;;;9.52;2.28;;;;;;;22.71;37.58;101297.69;5035444;28;20064;-60
2022/07/28 11:08:59;;;;;;;11.93;1.90;;;;;;;22.14;38.43;101298.91;5029156;28;20057;-60
2022/07/28 11:11:45;;;;;;;8.13;2.13;;;;;;;22.44;37.70;101293.22;5035238;28;20057;-60
2022/07/28 11:14:21;;;;;;;9.25;2.10;;;;;;;22.56;37.80;101295.66;5035855;28;20060;-60
2022/07/28 11:16:59;;;;;;;4.45;1.70;;;;;;;22.93;36.99;101284.84;5029914;28;20397;-60
2022/07/28 11:19:44;;;;;;;8.43;1.67;;;;;;;23.27;36.46;101292.13;5035875;28;20059;-59
2022/07/28 11:22:32;;;;;;;6.38;1.90;;;;;;;23.61;35.89;101293.03;5032558;28;20080;-57
2022/07/28 11:25:00;;;;;;;4.45;1.55;;;;;;;23.78;35.21;101285.94;5032403;28;20038;-60
2022/07/28 11:27:50;;;;;;;3.92;1.45;;;;;;;23.81;35.19;101276.72;5023844;28;20069;-63
2022/07/28 11:30:21;;;;;;;9.27;1.55;;;;;;;23.80;34.99;101280.41;5027040;28;20042;-56
2022/07/28 11:32:53;;;;;;;3.03;1.02;;;;;;;23.87;35.65;101278.78;5032235;28;20041;-58
2022/07/28 11:35:22;;;;;;;4.20;1.35;;;;;;;23.71;34.73;101284.91;5032054;28;20056;-54
2022/07/28 11:38:01;;;;;;;4.43;1.20;;;;;;;23.62;35.17;101278.59;5031445;28;20568;-58
2022/07/28 11:40:36;;;;;;;5.88;1.38;;;;;;;23.29;35.41;101282.94;5033935;28;20139;-58
2022/07/28 11:46:03;;;;;;;6.32;1.80;;;;;;;22.58;36.16;101273.06;5031470;28;20061;-54